createdAt,value
2023-07-19T00:00:33.713Z,29.94
2023-07-19T00:01:33.774Z,29.94
2023-07-19T00:02:33.834Z,29.94
2023-07-19T00:03:33.946Z,29.96
2023-07-19T00:04:33.882Z,29.94
2023-07-19T00:05:33.873Z,29.94
2023-07-19T00:06:33.921Z,29.96
2023-07-19T00:07:33.992Z,29.96
2023-07-19T00:08:33.984Z,29.94
2023-07-19T00:09:34.008Z,29.93
2023-07-19T00:10:34.033Z,29.93
2023-07-19T00:11:34.175Z,29.94
2023-07-19T00:12:42.580Z,29.93
2023-07-19T00:13:35.082Z,29.93
2023-07-19T00:14:34.167Z,29.94
2023-07-19T00:15:34.083Z,29.94
2023-07-19T00:16:34.273Z,29.96
2023-07-19T00:17:34.247Z,29.94
2023-07-19T00:18:34.109Z,29.94
2023-07-19T00:19:34.071Z,29.93
2023-07-19T00:20:34.029Z,29.93
2023-07-19T00:21:34.071Z,29.93
2023-07-19T00:22:34.047Z,29.91
2023-07-19T00:23:34.033Z,29.93
2023-07-19T00:24:34.025Z,29.91
2023-07-19T00:25:34.013Z,29.91
2023-07-19T00:26:34.029Z,29.91
2023-07-19T00:27:34.006Z,29.90
2023-07-19T00:28:33.979Z,29.90
2023-07-19T00:29:33.988Z,29.91
2023-07-19T00:30:34.017Z,29.91
2023-07-19T00:31:34.024Z,29.91
2023-07-19T00:32:34.083Z,29.88
2023-07-19T00:33:34.087Z,29.91
2023-07-19T00:34:34.199Z,29.91
2023-07-19T00:35:34.124Z,29.90
2023-07-19T00:36:34.172Z,29.88
2023-07-19T00:37:34.190Z,29.88
2023-07-19T00:38:34.209Z,29.90
2023-07-19T00:39:34.256Z,29.91
2023-07-19T00:40:34.309Z,29.88
2023-07-19T00:41:34.436Z,29.88
2023-07-19T00:42:34.476Z,29.90
2023-07-19T00:43:34.431Z,29.90
2023-07-19T00:44:34.423Z,29.88
2023-07-19T00:45:34.487Z,29.88
2023-07-19T00:46:34.448Z,29.90
2023-07-19T00:47:34.594Z,29.88
2023-07-19T00:48:34.532Z,29.90
2023-07-19T00:49:34.519Z,29.91
2023-07-19T00:50:34.400Z,29.87
2023-07-19T00:51:34.591Z,29.88
2023-07-19T00:52:34.433Z,29.86
2023-07-19T00:53:34.444Z,29.90
2023-07-19T00:54:34.576Z,29.87
2023-07-19T00:55:34.483Z,29.87
2023-07-19T00:56:34.459Z,29.87
2023-07-19T00:57:34.468Z,29.86
2023-07-19T00:58:34.601Z,29.88
2023-07-19T00:59:34.677Z,29.87
2023-07-19T01:00:34.580Z,29.90
2023-07-19T01:01:34.594Z,29.87
2023-07-19T01:02:34.813Z,29.90
2023-07-19T01:03:34.699Z,29.86
2023-07-19T01:04:34.730Z,29.84
2023-07-19T01:05:34.616Z,29.87
2023-07-19T01:06:34.743Z,29.86
2023-07-19T01:07:34.788Z,29.86
2023-07-19T01:08:34.785Z,29.86
2023-07-19T01:09:34.724Z,29.86
2023-07-19T01:10:34.663Z,29.84
2023-07-19T01:11:34.777Z,29.84
2023-07-19T01:12:34.794Z,29.84
2023-07-19T01:13:34.789Z,29.83
2023-07-19T01:14:34.784Z,29.83
2023-07-19T01:15:34.650Z,29.83
2023-07-19T01:16:34.718Z,29.83
2023-07-19T01:17:34.689Z,29.84
2023-07-19T01:18:34.666Z,29.83
2023-07-19T01:19:34.688Z,29.84
2023-07-19T01:20:34.637Z,29.83
2023-07-19T01:21:34.859Z,29.83
2023-07-19T01:22:34.825Z,29.81
2023-07-19T01:23:34.723Z,29.83
2023-07-19T01:24:34.679Z,29.81
2023-07-19T01:25:34.741Z,29.83
2023-07-19T01:26:34.677Z,29.81
2023-07-19T01:27:34.721Z,29.81
2023-07-19T01:28:34.714Z,29.84
2023-07-19T01:29:34.712Z,29.81
2023-07-19T01:30:34.720Z,29.81
2023-07-19T01:31:34.753Z,29.83
2023-07-19T01:32:34.799Z,29.81
2023-07-19T01:33:34.784Z,29.80
2023-07-19T01:34:34.732Z,29.79
2023-07-19T01:35:34.762Z,29.79
2023-07-19T01:36:34.745Z,29.80
2023-07-19T01:37:34.713Z,29.79
2023-07-19T01:38:34.734Z,29.79
2023-07-19T01:39:34.721Z,29.80
2023-07-19T01:40:34.736Z,29.80
2023-07-19T01:41:34.732Z,29.80
2023-07-19T01:42:34.758Z,29.80
2023-07-19T01:43:34.768Z,29.80
2023-07-19T01:44:34.756Z,29.79
2023-07-19T01:45:34.794Z,29.79
2023-07-19T01:46:34.772Z,29.80
2023-07-19T01:47:34.823Z,29.80
2023-07-19T01:48:34.752Z,29.79
2023-07-19T01:49:34.802Z,29.79
2023-07-19T01:50:34.844Z,29.80
2023-07-19T01:51:34.763Z,29.80
2023-07-19T01:52:34.786Z,29.79
2023-07-19T01:53:34.771Z,29.77
2023-07-19T01:54:34.776Z,29.79
2023-07-19T01:55:34.784Z,29.80
2023-07-19T01:56:34.779Z,29.76
2023-07-19T01:57:34.786Z,29.76
2023-07-19T01:58:34.774Z,29.77
2023-07-19T01:59:34.778Z,29.77
2023-07-19T02:00:34.745Z,29.77
2023-07-19T02:01:34.907Z,29.77
2023-07-19T02:02:34.937Z,29.76
2023-07-19T02:03:34.849Z,29.77
2023-07-19T02:04:34.804Z,29.76
2023-07-19T02:05:34.729Z,29.76
2023-07-19T02:06:34.759Z,29.75
2023-07-19T02:07:34.760Z,29.76
2023-07-19T02:08:34.735Z,29.75
2023-07-19T02:09:34.773Z,29.76
2023-07-19T02:10:34.790Z,29.76
2023-07-19T02:11:34.780Z,29.76
2023-07-19T02:12:34.735Z,29.76
2023-07-19T02:13:34.765Z,29.76
2023-07-19T02:14:34.728Z,29.77
2023-07-19T02:15:34.745Z,29.76
2023-07-19T02:16:34.696Z,29.75
2023-07-19T02:17:34.761Z,29.75
2023-07-19T02:18:34.677Z,29.75
2023-07-19T02:19:34.722Z,29.76
2023-07-19T02:20:34.681Z,29.75
2023-07-19T02:21:34.709Z,29.73
2023-07-19T02:22:34.727Z,29.75
2023-07-19T02:23:34.672Z,29.73
2023-07-19T02:24:34.669Z,29.73
2023-07-19T02:25:34.654Z,29.75
2023-07-19T02:26:34.678Z,29.75
2023-07-19T02:27:34.663Z,29.73
2023-07-19T02:28:34.683Z,29.76
2023-07-19T02:29:34.677Z,29.73
2023-07-19T02:30:34.698Z,29.75
2023-07-19T02:31:34.768Z,29.75
2023-07-19T02:32:34.668Z,29.73
2023-07-19T02:33:34.642Z,29.75
2023-07-19T02:34:34.654Z,29.72
2023-07-19T02:35:34.638Z,29.72
2023-07-19T02:36:34.646Z,29.70
2023-07-19T02:37:34.628Z,29.72
2023-07-19T02:38:34.646Z,29.72
2023-07-19T02:39:34.610Z,29.72
2023-07-19T02:40:34.636Z,29.70
2023-07-19T02:41:34.644Z,29.72
2023-07-19T02:42:34.626Z,29.73
2023-07-19T02:43:34.608Z,29.70
2023-07-19T02:44:34.592Z,29.70
2023-07-19T02:45:34.603Z,29.70
2023-07-19T02:46:35.095Z,29.72
2023-07-19T02:47:34.624Z,29.72
2023-07-19T02:48:34.604Z,29.70
2023-07-19T02:49:34.599Z,29.67
2023-07-19T02:50:34.617Z,29.70
2023-07-19T02:51:34.569Z,29.69
2023-07-19T02:52:34.600Z,29.73
2023-07-19T02:53:34.586Z,29.69
2023-07-19T02:54:34.561Z,29.70
2023-07-19T02:55:34.568Z,29.70
2023-07-19T02:56:34.582Z,29.69
2023-07-19T02:57:34.566Z,29.70
2023-07-19T02:58:34.565Z,29.67
2023-07-19T02:59:34.579Z,29.69
2023-07-19T03:00:34.625Z,29.69
2023-07-19T03:01:34.599Z,29.67
2023-07-19T03:02:34.596Z,29.67
2023-07-19T03:03:34.788Z,29.66
2023-07-19T03:04:34.523Z,29.67
2023-07-19T03:05:34.546Z,29.67
2023-07-19T03:06:34.536Z,29.67
2023-07-19T03:07:34.553Z,29.67
2023-07-19T03:08:34.552Z,29.67
2023-07-19T03:09:34.571Z,29.66
2023-07-19T03:10:34.541Z,29.69
2023-07-19T03:11:34.516Z,29.69
2023-07-19T03:12:34.513Z,29.67
2023-07-19T03:13:34.505Z,29.66
2023-07-19T03:14:34.534Z,29.67
2023-07-19T03:15:34.555Z,29.66
2023-07-19T03:16:34.562Z,29.66
2023-07-19T03:17:34.502Z,29.65
2023-07-19T03:18:34.515Z,29.63
2023-07-19T03:19:34.486Z,29.67
2023-07-19T03:20:34.491Z,29.63
2023-07-19T03:21:34.491Z,29.65
2023-07-19T03:22:34.541Z,29.66
2023-07-19T03:23:34.485Z,29.67
2023-07-19T03:24:34.524Z,29.65
2023-07-19T03:25:34.498Z,29.65
2023-07-19T03:26:34.480Z,29.69
2023-07-19T03:27:34.460Z,29.67
2023-07-19T03:28:34.484Z,29.65
2023-07-19T03:29:34.488Z,29.65
2023-07-19T03:30:34.534Z,29.65
2023-07-19T03:31:34.496Z,29.65
2023-07-19T03:32:34.560Z,29.63
2023-07-19T03:33:34.457Z,29.65
2023-07-19T03:34:34.453Z,29.66
2023-07-19T03:35:34.449Z,29.63
2023-07-19T03:36:34.486Z,29.65
2023-07-19T03:37:34.442Z,29.63
2023-07-19T03:38:34.490Z,29.65
2023-07-19T03:39:34.472Z,29.65
2023-07-19T03:40:34.494Z,29.65
2023-07-19T03:41:34.480Z,29.63
2023-07-19T03:42:34.474Z,29.62
2023-07-19T03:43:34.485Z,29.63
2023-07-19T03:44:34.484Z,29.63
2023-07-19T03:45:34.487Z,29.62
2023-07-19T03:46:34.536Z,29.63
2023-07-19T03:47:34.519Z,29.63
2023-07-19T03:48:34.576Z,29.63
2023-07-19T03:49:34.597Z,29.62
2023-07-19T03:50:34.476Z,29.63
2023-07-19T03:51:34.467Z,29.63
2023-07-19T03:52:34.511Z,29.63
2023-07-19T03:53:34.479Z,29.62
2023-07-19T03:54:34.512Z,29.65
2023-07-19T03:55:34.496Z,29.62
2023-07-19T03:56:34.475Z,29.63
2023-07-19T03:57:34.478Z,29.59
2023-07-19T03:58:34.536Z,29.65
2023-07-19T03:59:34.471Z,29.63
2023-07-19T04:00:34.494Z,29.62
2023-07-19T04:01:34.488Z,29.63
2023-07-19T04:02:34.529Z,29.62
2023-07-19T04:03:34.562Z,29.63
2023-07-19T04:04:34.499Z,29.62
2023-07-19T04:05:34.513Z,29.63
2023-07-19T04:06:34.501Z,29.59
2023-07-19T04:07:34.502Z,29.63
2023-07-19T04:08:34.490Z,29.62
2023-07-19T04:09:34.516Z,29.63
2023-07-19T04:10:34.490Z,29.62
2023-07-19T04:11:34.503Z,29.62
2023-07-19T04:12:34.478Z,29.63
2023-07-19T04:13:34.503Z,29.63
2023-07-19T04:14:34.538Z,29.63
2023-07-19T04:15:34.511Z,29.63
2023-07-19T04:16:34.538Z,29.65
2023-07-19T04:17:34.529Z,29.63
2023-07-19T04:18:34.514Z,29.63
2023-07-19T04:19:34.499Z,29.66
2023-07-19T04:20:34.531Z,29.65
2023-07-19T04:21:34.476Z,29.65
2023-07-19T04:22:34.585Z,29.66
2023-07-19T04:23:34.464Z,29.63
2023-07-19T04:24:34.513Z,29.65
2023-07-19T04:25:34.486Z,29.60
2023-07-19T04:26:34.474Z,29.62
2023-07-19T04:27:34.484Z,29.62
2023-07-19T04:28:34.496Z,29.65
2023-07-19T04:29:34.485Z,29.65
2023-07-19T04:30:34.471Z,29.63
2023-07-19T04:31:34.483Z,29.63
2023-07-19T04:32:34.555Z,29.63
2023-07-19T04:33:34.601Z,29.62
2023-07-19T04:34:34.506Z,29.60
2023-07-19T04:35:34.495Z,29.60
2023-07-19T04:36:34.483Z,29.62
2023-07-19T04:37:34.606Z,29.62
2023-07-19T04:38:34.481Z,29.62
2023-07-19T04:39:34.493Z,29.60
2023-07-19T04:40:34.516Z,29.62
2023-07-19T04:41:34.484Z,29.60
2023-07-19T04:42:34.471Z,29.60
2023-07-19T04:43:34.461Z,29.57
2023-07-19T04:44:34.465Z,29.59
2023-07-19T04:45:34.483Z,29.62
2023-07-19T04:46:34.624Z,29.59
2023-07-19T04:47:34.557Z,29.59
2023-07-19T04:48:34.483Z,29.59
2023-07-19T04:49:34.466Z,29.59
2023-07-19T04:50:34.502Z,29.59
2023-07-19T04:51:34.483Z,29.57
2023-07-19T04:52:34.481Z,29.59
2023-07-19T04:53:34.505Z,29.57
2023-07-19T04:54:34.496Z,29.57
2023-07-19T04:55:34.474Z,29.57
2023-07-19T04:56:34.503Z,29.56
2023-07-19T04:57:34.513Z,29.56
2023-07-19T04:58:34.478Z,29.59
2023-07-19T04:59:34.498Z,29.59
2023-07-19T05:00:34.504Z,29.59
2023-07-19T05:01:34.540Z,29.60
2023-07-19T05:02:34.555Z,29.59
2023-07-19T05:03:34.519Z,29.59
2023-07-19T05:04:34.522Z,29.57
2023-07-19T05:05:34.618Z,29.57
2023-07-19T05:06:34.512Z,29.60
2023-07-19T05:07:34.554Z,29.59
2023-07-19T05:08:34.562Z,29.60
2023-07-19T05:09:34.545Z,29.57
2023-07-19T05:10:34.538Z,29.60
2023-07-19T05:11:34.554Z,29.62
2023-07-19T05:12:34.557Z,29.62
2023-07-19T05:13:34.565Z,29.63
2023-07-19T05:14:34.569Z,29.63
2023-07-19T05:15:34.570Z,29.62
2023-07-19T05:16:34.673Z,29.63
2023-07-19T05:17:34.625Z,29.62
2023-07-19T05:18:34.593Z,29.62
2023-07-19T05:19:34.599Z,29.62
2023-07-19T05:20:34.592Z,29.65
2023-07-19T05:21:34.638Z,29.65
2023-07-19T05:22:34.786Z,29.65
2023-07-19T05:23:34.641Z,29.65
2023-07-19T05:24:34.622Z,29.65
2023-07-19T05:25:34.603Z,29.66
2023-07-19T05:26:34.645Z,29.63
2023-07-19T05:27:34.621Z,29.65
2023-07-19T05:28:34.612Z,29.63
2023-07-19T05:29:34.602Z,29.65
2023-07-19T05:30:34.626Z,29.63
2023-07-19T05:31:34.720Z,29.62
2023-07-19T05:32:34.669Z,29.62
2023-07-19T05:33:34.659Z,29.60
2023-07-19T05:34:34.641Z,29.62
2023-07-19T05:35:34.643Z,29.62
2023-07-19T05:36:34.640Z,29.57
2023-07-19T05:37:34.634Z,29.60
2023-07-19T05:38:34.662Z,29.59
2023-07-19T05:39:34.632Z,29.56
2023-07-19T05:40:34.659Z,29.59
2023-07-19T05:41:34.664Z,29.57
2023-07-19T05:42:34.651Z,29.57
2023-07-19T05:43:34.700Z,29.57
2023-07-19T05:44:34.666Z,29.57
2023-07-19T05:45:34.722Z,29.57
2023-07-19T05:46:34.691Z,29.56
2023-07-19T05:47:34.740Z,29.57
2023-07-19T05:48:34.729Z,29.60
2023-07-19T05:49:34.722Z,29.59
2023-07-19T05:50:34.731Z,29.56
2023-07-19T05:51:34.730Z,29.59
2023-07-19T05:52:34.725Z,29.60
2023-07-19T05:53:34.742Z,29.59
2023-07-19T05:54:34.770Z,29.63
2023-07-19T05:55:34.811Z,29.60
2023-07-19T05:56:34.748Z,29.65
2023-07-19T05:57:34.741Z,29.63
2023-07-19T05:58:34.753Z,29.67
2023-07-19T05:59:34.749Z,29.67
2023-07-19T06:00:34.757Z,29.70
2023-07-19T06:01:35.516Z,29.73
2023-07-19T06:02:47.769Z,29.76
2023-07-19T06:03:35.900Z,29.80
2023-07-19T06:04:34.820Z,29.84
2023-07-19T06:05:34.775Z,29.86
2023-07-19T06:06:34.821Z,29.87
2023-07-19T06:07:34.698Z,29.88
2023-07-19T06:08:34.726Z,29.90
2023-07-19T06:09:34.718Z,29.93
2023-07-19T06:10:34.697Z,29.96
2023-07-19T06:11:34.740Z,29.94
2023-07-19T06:12:34.699Z,29.99
2023-07-19T06:13:34.682Z,29.97
2023-07-19T06:14:34.668Z,29.97
2023-07-19T06:15:34.695Z,29.96
2023-07-19T06:16:34.653Z,29.97
2023-07-19T06:17:34.716Z,29.94
2023-07-19T06:18:34.670Z,29.97
2023-07-19T06:19:34.656Z,29.96
2023-07-19T06:20:34.643Z,29.94
2023-07-19T06:21:34.627Z,29.94
2023-07-19T06:22:34.664Z,29.93
2023-07-19T06:23:34.745Z,29.94
2023-07-19T06:24:34.632Z,29.96
2023-07-19T06:25:34.610Z,29.96
2023-07-19T06:26:34.584Z,29.99
2023-07-19T06:27:34.578Z,30.00
2023-07-19T06:28:34.636Z,30.00
2023-07-19T06:29:34.568Z,30.01
2023-07-19T06:30:34.575Z,30.04
2023-07-19T06:31:34.615Z,30.08
2023-07-19T06:32:34.596Z,30.11
2023-07-19T06:33:34.572Z,30.17
2023-07-19T06:34:34.553Z,30.35
2023-07-19T06:35:34.653Z,30.52
2023-07-19T06:36:34.550Z,30.70
2023-07-19T06:37:34.582Z,30.78
2023-07-19T06:38:34.643Z,30.83
2023-07-19T06:39:34.677Z,30.89
2023-07-19T06:40:34.710Z,31.00
2023-07-19T06:41:34.728Z,31.16
2023-07-19T06:42:34.788Z,31.27
2023-07-19T06:43:34.800Z,31.34
2023-07-19T06:44:34.799Z,31.42
2023-07-19T06:45:34.821Z,31.34
2023-07-19T06:46:34.889Z,31.31
2023-07-19T06:47:34.877Z,31.30
2023-07-19T06:48:34.855Z,31.30
2023-07-19T06:49:34.922Z,31.27
2023-07-19T06:50:34.931Z,31.24
2023-07-19T06:51:34.988Z,31.20
2023-07-19T06:52:34.975Z,31.16
2023-07-19T06:53:34.994Z,31.10
2023-07-19T06:54:35.015Z,31.03
2023-07-19T06:55:35.094Z,31.00
2023-07-19T06:56:35.121Z,30.94
2023-07-19T06:57:35.125Z,30.91
2023-07-19T06:58:35.168Z,30.87
2023-07-19T06:59:35.273Z,30.85
2023-07-19T07:00:35.347Z,30.80
2023-07-19T07:01:35.322Z,30.75
2023-07-19T07:02:35.361Z,30.73
2023-07-19T07:03:35.576Z,30.68
2023-07-19T07:04:35.444Z,30.68
2023-07-19T07:05:35.552Z,30.69
2023-07-19T07:06:35.533Z,30.73
2023-07-19T07:07:35.586Z,30.85
2023-07-19T07:08:35.619Z,30.94
2023-07-19T07:09:35.640Z,31.06
2023-07-19T07:10:35.696Z,31.09
2023-07-19T07:11:35.705Z,31.09
2023-07-19T07:12:35.756Z,31.23
2023-07-19T07:13:35.753Z,31.23
2023-07-19T07:14:35.793Z,31.18
2023-07-19T07:15:35.797Z,31.14
2023-07-19T07:16:35.894Z,31.07
2023-07-19T07:17:35.899Z,31.03
2023-07-19T07:18:35.910Z,30.99
2023-07-19T07:19:36.170Z,30.96
2023-07-19T07:20:35.966Z,30.89
2023-07-19T07:21:36.008Z,30.86
2023-07-19T07:22:36.083Z,30.80
2023-07-19T07:23:36.183Z,30.78
2023-07-19T07:24:36.150Z,30.73
2023-07-19T07:25:36.166Z,30.69
2023-07-19T07:26:36.229Z,30.66
2023-07-19T07:27:36.275Z,30.63
2023-07-19T07:28:36.322Z,30.59
2023-07-19T07:29:36.431Z,30.58
2023-07-19T07:30:36.413Z,30.52
2023-07-19T07:31:36.495Z,30.52
2023-07-19T07:32:36.594Z,30.46
2023-07-19T07:33:36.652Z,30.45
2023-07-19T07:34:36.640Z,30.43
2023-07-19T07:35:36.767Z,30.42
2023-07-19T07:36:36.757Z,30.42
2023-07-19T07:37:36.805Z,30.36
2023-07-19T07:38:36.875Z,30.36
2023-07-19T07:39:36.964Z,30.36
2023-07-19T07:40:36.994Z,30.36
2023-07-19T07:41:37.091Z,30.34
2023-07-19T07:42:37.125Z,30.32
2023-07-19T07:43:37.223Z,30.31
2023-07-19T07:44:37.240Z,30.32
2023-07-19T07:45:37.286Z,30.31
2023-07-19T07:46:37.470Z,30.25
2023-07-19T07:47:37.434Z,30.27
2023-07-19T07:48:37.502Z,30.27
2023-07-19T07:49:37.527Z,30.24
2023-07-19T07:50:37.653Z,30.24
2023-07-19T07:51:37.665Z,30.25
2023-07-19T07:52:37.739Z,30.25
2023-07-19T07:53:37.843Z,30.24
2023-07-19T07:54:37.866Z,30.24
2023-07-19T07:55:37.906Z,30.24
2023-07-19T07:56:37.953Z,30.24
2023-07-19T07:57:38.049Z,30.25
2023-07-19T07:58:38.103Z,30.27
2023-07-19T07:59:38.140Z,30.31
2023-07-19T08:00:38.237Z,30.34
2023-07-19T08:01:38.282Z,30.38
2023-07-19T08:02:38.467Z,30.41
2023-07-19T08:03:38.480Z,30.45
2023-07-19T08:04:38.444Z,30.48
2023-07-19T08:05:38.473Z,30.51
2023-07-19T08:06:38.509Z,30.54
2023-07-19T08:07:38.569Z,30.62
2023-07-19T08:08:38.583Z,30.76
2023-07-19T08:09:38.690Z,30.86
2023-07-19T08:10:38.641Z,30.86
2023-07-19T08:11:38.672Z,30.93
2023-07-19T08:12:38.716Z,31.04
2023-07-19T08:13:38.725Z,31.10
2023-07-19T08:14:38.741Z,31.21
2023-07-19T08:15:38.749Z,31.28
2023-07-19T08:16:38.787Z,31.35
2023-07-19T08:17:38.812Z,31.42
2023-07-19T08:18:38.805Z,31.49
2023-07-19T08:19:38.871Z,31.55
2023-07-19T08:20:38.819Z,31.62
2023-07-19T08:21:38.990Z,31.69
2023-07-19T08:22:38.854Z,31.72
2023-07-19T08:23:38.846Z,31.81
2023-07-19T08:24:38.843Z,31.86
2023-07-19T08:25:38.836Z,31.91
2023-07-19T08:26:38.833Z,31.92
2023-07-19T08:27:38.847Z,31.92
2023-07-19T08:28:38.829Z,31.91
2023-07-19T08:29:38.904Z,31.88
2023-07-19T08:30:38.852Z,31.85
2023-07-19T08:31:38.827Z,31.81
2023-07-19T08:32:38.910Z,31.76
2023-07-19T08:33:38.861Z,31.69
2023-07-19T08:34:38.881Z,31.64
2023-07-19T08:35:38.858Z,31.60
2023-07-19T08:36:38.881Z,31.55
2023-07-19T08:37:38.886Z,31.47
2023-07-19T08:38:38.892Z,31.44
2023-07-19T08:39:38.912Z,31.41
2023-07-19T08:40:38.928Z,31.35
2023-07-19T08:41:38.919Z,31.30
2023-07-19T08:42:38.985Z,31.24
2023-07-19T08:43:38.977Z,31.21
2023-07-19T08:44:38.964Z,31.17
2023-07-19T08:45:38.972Z,31.14
2023-07-19T08:46:39.017Z,31.10
2023-07-19T08:47:39.015Z,31.09
2023-07-19T08:48:39.028Z,31.03
2023-07-19T08:49:39.040Z,31.06
2023-07-19T08:50:39.078Z,31.01
2023-07-19T08:51:39.088Z,30.99
2023-07-19T08:52:39.102Z,30.96
2023-07-19T08:53:39.126Z,30.96
2023-07-19T08:54:39.144Z,30.97
2023-07-19T08:55:39.155Z,30.93
2023-07-19T08:56:39.166Z,30.96
2023-07-19T08:57:39.226Z,30.91
2023-07-19T08:58:39.287Z,30.93
2023-07-19T08:59:39.232Z,30.93
2023-07-19T09:00:39.249Z,30.90
2023-07-19T09:01:39.319Z,30.90
2023-07-19T09:02:39.350Z,30.89
2023-07-19T09:03:39.330Z,30.87
2023-07-19T09:04:39.405Z,30.89
2023-07-19T09:05:39.374Z,30.87
2023-07-19T09:06:39.418Z,30.90
2023-07-19T09:07:39.432Z,30.87
2023-07-19T09:08:39.452Z,30.89
2023-07-19T09:09:39.483Z,30.86
2023-07-19T09:10:39.550Z,30.89
2023-07-19T09:11:39.510Z,30.91
2023-07-19T09:12:39.611Z,30.91
2023-07-19T09:13:40.140Z,30.93
2023-07-19T09:14:39.581Z,30.96
2023-07-19T09:15:39.601Z,31.00
2023-07-19T09:16:39.606Z,31.03
2023-07-19T09:17:39.749Z,31.10
2023-07-19T09:18:40.259Z,31.12
2023-07-19T09:19:39.688Z,31.12
2023-07-19T09:20:39.698Z,31.12
2023-07-19T09:21:39.697Z,31.10
2023-07-19T09:22:39.741Z,31.17
2023-07-19T09:23:39.760Z,31.24
2023-07-19T09:24:39.757Z,31.34
2023-07-19T09:25:39.775Z,31.45
2023-07-19T09:26:39.744Z,31.51
2023-07-19T09:27:39.762Z,31.58
2023-07-19T09:28:39.781Z,31.62
2023-07-19T09:29:39.802Z,31.69
2023-07-19T09:30:39.779Z,31.68
2023-07-19T09:31:39.812Z,31.69
2023-07-19T09:32:39.820Z,31.68
2023-07-19T09:33:39.771Z,31.69
2023-07-19T09:34:39.800Z,31.74
2023-07-19T09:35:39.782Z,31.79
2023-07-19T09:36:39.787Z,31.82
2023-07-19T09:37:39.752Z,31.86
2023-07-19T09:38:39.783Z,31.89
2023-07-19T09:39:39.769Z,31.89
2023-07-19T09:40:39.744Z,31.83
2023-07-19T09:41:39.758Z,31.83
2023-07-19T09:42:39.740Z,31.82
2023-07-19T09:43:39.733Z,31.88
2023-07-19T09:44:39.758Z,31.93
2023-07-19T09:45:39.744Z,31.97
2023-07-19T09:46:39.758Z,32.02
2023-07-19T09:47:39.809Z,32.05
2023-07-19T09:48:39.871Z,32.09
2023-07-19T09:49:39.925Z,32.12
2023-07-19T09:50:39.990Z,32.15
2023-07-19T09:51:40.040Z,32.13
2023-07-19T09:52:40.093Z,32.09
2023-07-19T09:53:40.144Z,32.03
2023-07-19T09:54:40.234Z,32.00
2023-07-19T09:55:40.198Z,32.00
2023-07-19T09:56:40.265Z,32.02
2023-07-19T09:57:40.273Z,31.96
2023-07-19T09:58:40.309Z,31.96
2023-07-19T09:59:40.372Z,32.00
2023-07-19T10:00:40.384Z,32.06
2023-07-19T10:01:40.471Z,32.12
2023-07-19T10:02:40.549Z,32.16
2023-07-19T10:03:40.556Z,32.22
2023-07-19T10:04:40.614Z,32.23
2023-07-19T10:05:40.699Z,32.10
2023-07-19T10:06:40.700Z,31.99
2023-07-19T10:08:40.754Z,31.82
2023-07-19T10:09:40.708Z,31.76
2023-07-19T10:10:40.750Z,31.67
2023-07-19T10:11:40.696Z,31.61
2023-07-19T10:12:40.700Z,31.61
2023-07-19T10:13:40.725Z,31.54
2023-07-19T10:14:40.869Z,31.48
2023-07-19T10:15:40.871Z,31.44
2023-07-19T10:16:40.874Z,31.38
2023-07-19T10:17:41.001Z,31.37
2023-07-19T10:18:40.867Z,31.31
2023-07-19T10:19:40.896Z,31.28
2023-07-19T10:20:40.872Z,31.28
2023-07-19T10:21:40.869Z,31.24
2023-07-19T10:22:40.936Z,31.21
2023-07-19T10:23:40.923Z,31.23
2023-07-19T10:24:40.925Z,31.21
2023-07-19T10:25:40.961Z,31.18
2023-07-19T10:26:40.953Z,31.14
2023-07-19T10:27:40.948Z,31.14
2023-07-19T10:28:40.981Z,31.13
2023-07-19T10:29:40.995Z,31.14
2023-07-19T10:30:41.114Z,31.10
2023-07-19T10:31:41.019Z,31.09
2023-07-19T10:32:41.066Z,31.10
2023-07-19T10:33:41.131Z,31.07
2023-07-19T10:34:44.782Z,31.04
2023-07-19T10:35:41.113Z,31.03
2023-07-19T10:36:41.049Z,31.03
2023-07-19T10:37:41.047Z,31.04
2023-07-19T10:38:41.032Z,31.04
2023-07-19T10:39:41.032Z,31.01
2023-07-19T10:40:41.039Z,31.00
2023-07-19T10:41:41.006Z,30.99
2023-07-19T10:42:41.033Z,31.00
2023-07-19T10:44:40.992Z,31.00
2023-07-19T10:45:41.091Z,31.01
2023-07-19T10:46:40.997Z,30.99
2023-07-19T10:47:40.964Z,30.99
2023-07-19T10:48:42.454Z,30.99
2023-07-19T10:49:40.956Z,30.99
2023-07-19T10:50:40.972Z,30.99
2023-07-19T10:51:40.936Z,30.96
2023-07-19T10:52:40.920Z,30.99
2023-07-19T10:53:40.924Z,30.97
2023-07-19T10:54:51.252Z,31.00
2023-07-19T10:56:41.904Z,30.96
2023-07-19T10:57:40.921Z,30.96
2023-07-19T10:58:40.907Z,30.96
2023-07-19T10:59:40.878Z,30.99
2023-07-19T11:00:40.860Z,30.96
2023-07-19T11:01:41.332Z,30.94
2023-07-19T11:02:40.941Z,30.94
2023-07-19T11:03:40.896Z,30.94
2023-07-19T11:04:40.835Z,30.96
2023-07-19T11:05:40.840Z,30.96
2023-07-19T11:06:41.271Z,30.96
2023-07-19T11:07:40.861Z,30.91
2023-07-19T11:08:40.804Z,30.94
2023-07-19T11:09:40.815Z,30.94
2023-07-19T11:10:40.829Z,30.96
2023-07-19T11:11:40.848Z,30.94
2023-07-19T11:12:40.808Z,30.91
2023-07-19T11:13:40.818Z,30.97
2023-07-19T11:14:40.804Z,30.97
2023-07-19T11:15:40.830Z,30.94
2023-07-19T11:16:40.937Z,30.94
2023-07-19T11:17:40.769Z,30.94
2023-07-19T11:18:40.792Z,30.94
2023-07-19T11:19:40.769Z,30.93
2023-07-19T11:20:40.812Z,30.96
2023-07-19T11:21:40.737Z,30.93
2023-07-19T11:22:40.808Z,30.93
2023-07-19T11:23:40.732Z,30.94
2023-07-19T11:24:40.722Z,30.93
2023-07-19T11:25:40.762Z,30.93
2023-07-19T11:26:40.737Z,30.93
2023-07-19T11:27:40.689Z,30.93
2023-07-19T11:28:40.677Z,30.90
2023-07-19T11:29:40.687Z,30.93
2023-07-19T11:30:40.788Z,30.91
2023-07-19T11:31:40.748Z,30.89
2023-07-19T11:32:40.700Z,30.91
2023-07-19T11:33:40.664Z,30.90
2023-07-19T11:34:40.738Z,30.91
2023-07-19T11:35:40.686Z,30.93
2023-07-19T11:36:40.650Z,30.93
2023-07-19T11:37:40.622Z,30.93
2023-07-19T11:38:40.630Z,30.93
2023-07-19T11:39:40.596Z,30.93
2023-07-19T11:40:40.625Z,30.96
2023-07-19T11:41:40.588Z,30.91
2023-07-19T11:42:40.664Z,30.97
2023-07-19T11:43:40.591Z,30.96
2023-07-19T11:44:40.601Z,30.99
2023-07-19T11:45:40.566Z,30.97
2023-07-19T11:46:40.597Z,31.01
2023-07-19T11:47:40.561Z,31.00
2023-07-19T11:48:40.569Z,31.04
2023-07-19T11:49:40.573Z,31.00
2023-07-19T11:50:40.536Z,31.01
2023-07-19T11:51:40.533Z,31.01
2023-07-19T11:52:40.533Z,31.06
2023-07-19T11:53:40.528Z,31.04
2023-07-19T11:54:40.502Z,31.03
2023-07-19T11:55:40.504Z,31.04
2023-07-19T11:56:40.532Z,31.06
2023-07-19T11:57:40.490Z,31.01
2023-07-19T11:58:45.879Z,31.04
2023-07-19T11:59:41.553Z,31.03
2023-07-19T12:00:40.537Z,31.06
2023-07-19T12:01:40.473Z,31.04
2023-07-19T12:02:40.534Z,31.06
2023-07-19T12:03:40.463Z,31.03
2023-07-19T12:04:40.460Z,31.06
2023-07-19T12:05:40.428Z,31.01
2023-07-19T12:06:40.424Z,31.04
2023-07-19T12:07:40.422Z,31.07
2023-07-19T12:08:40.445Z,31.03
2023-07-19T12:09:40.408Z,31.06
2023-07-19T12:10:40.405Z,31.04
2023-07-19T12:11:40.404Z,31.07
2023-07-19T12:12:40.397Z,31.13
2023-07-19T12:13:40.371Z,31.20
2023-07-19T12:14:40.374Z,31.23
2023-07-19T12:15:40.385Z,31.28
2023-07-19T12:16:40.454Z,31.30
2023-07-19T12:17:40.366Z,31.33
2023-07-19T12:18:40.373Z,31.33
2023-07-19T12:19:40.359Z,31.37
2023-07-19T12:20:40.375Z,31.42
2023-07-19T12:21:40.354Z,31.44
2023-07-19T12:22:40.381Z,31.42
2023-07-19T12:24:40.294Z,31.44
2023-07-19T12:25:40.299Z,31.45
2023-07-19T12:26:40.319Z,31.45
2023-07-19T12:27:40.284Z,31.44
2023-07-19T12:28:40.270Z,31.44
2023-07-19T12:29:53.047Z,31.45
2023-07-19T12:30:41.289Z,31.49
2023-07-19T12:31:40.289Z,31.51
2023-07-19T12:32:40.298Z,31.54
2023-07-19T12:33:40.278Z,31.55
2023-07-19T12:34:40.261Z,31.57
2023-07-19T12:35:40.239Z,31.58
2023-07-19T12:36:40.211Z,31.60
2023-07-19T12:37:40.214Z,31.60
2023-07-19T12:38:40.210Z,31.61
2023-07-19T12:39:40.203Z,31.58
2023-07-19T12:40:40.201Z,31.58
2023-07-19T12:41:40.244Z,31.57
2023-07-19T12:42:40.182Z,31.60
2023-07-19T12:43:40.203Z,31.54
2023-07-19T12:44:40.171Z,31.55
2023-07-19T12:45:40.230Z,31.54
2023-07-19T12:46:40.259Z,31.54
2023-07-19T12:47:40.267Z,31.49
2023-07-19T12:48:40.262Z,31.54
2023-07-19T12:49:40.290Z,31.49
2023-07-19T12:50:40.316Z,31.48
2023-07-19T12:51:40.332Z,31.45
2023-07-19T12:52:51.074Z,31.47
2023-07-19T12:53:41.318Z,31.42
2023-07-19T12:54:40.331Z,31.41
2023-07-19T12:55:40.304Z,31.41
2023-07-19T12:56:40.340Z,31.37